Time;durP1;ratioP1;P1;durP2;ratioP2;P2;SDS_P1;SDS_P2;PMS_P1;PMS_P2;Temp;Humidity;BMP_temperature;BMP_pressure;BME280_temperature;BME280_humidity;BME280_pressure;Samples;Min_cycle;Max_cycle;Signal;HPM_P1;HPM_P2
2024/03/01 00:01:47;;;;;;;21.67;4.60;;;11.90;99.90;;;;;;4984039;28;20404;-78
2024/03/01 00:04:13;;;;;;;17.73;5.07;;;11.90;99.90;;;;;;4980933;28;20276;-78
2024/03/01 00:06:39;;;;;;;16.55;4.65;;;12.00;99.90;;;;;;4983811;28;20038;-78
2024/03/01 00:09:04;;;;;;;11.48;4.82;;;12.00;99.90;;;;;;4983147;28;20023;-78
2024/03/01 00:11:31;;;;;;;9.65;4.03;;;12.00;99.90;;;;;;4986010;28;20105;-78
2024/03/01 00:13:57;;;;;;;9.38;3.90;;;12.00;99.90;;;;;;4981971;28;20030;-78
2024/03/01 00:16:23;;;;;;;9.18;4.38;;;12.00;99.90;;;;;;4985639;28;20026;-78
2024/03/01 00:18:49;;;;;;;16.25;4.55;;;11.90;99.90;;;;;;4987945;28;20046;-78
2024/03/01 00:21:17;;;;;;;22.13;5.10;;;11.90;99.90;;;;;;4983220;28;20026;-78
2024/03/01 00:23:43;;;;;;;13.15;4.97;;;11.90;99.90;;;;;;4984407;28;20069;-78
2024/03/01 00:26:09;;;;;;;11.55;4.38;;;11.90;99.90;;;;;;4988854;28;20190;-78
2024/03/01 00:28:35;;;;;;;15.70;4.35;;;11.90;99.90;;;;;;4984328;28;20026;-78
2024/03/01 00:31:04;;;;;;;12.00;4.80;;;11.90;99.90;;;;;;4984434;28;20034;-78
2024/03/01 00:33:31;;;;;;;18.67;4.93;;;11.90;99.90;;;;;;4981164;28;20019;-78
2024/03/01 00:35:56;;;;;;;20.73;5.65;;;11.90;99.90;;;;;;4987979;28;20034;-78
2024/03/01 00:38:22;;;;;;;14.40;5.22;;;11.90;99.90;;;;;;4982040;28;20026;-78
2024/03/01 00:40:48;;;;;;;14.23;5.15;;;11.90;99.90;;;;;;4989932;28;20069;-78
2024/03/01 00:43:13;;;;;;;15.65;4.85;;;11.90;99.90;;;;;;4983065;28;20061;-78
2024/03/01 00:45:39;;;;;;;20.45;4.78;;;11.90;99.90;;;;;;4984092;28;20089;-78
2024/03/01 00:48:10;;;;;;;12.55;5.00;;;11.90;99.90;;;;;;4986091;28;20037;-78
2024/03/01 00:50:39;;;;;;;18.35;4.60;;;11.80;99.90;;;;;;4983057;28;20027;-78
2024/03/01 00:53:05;;;;;;;13.77;4.07;;;11.80;99.90;;;;;;4981850;28;20118;-78
2024/03/01 00:55:31;;;;;;;10.40;4.65;;;11.80;99.90;;;;;;4981161;28;20034;-78
2024/03/01 00:57:57;;;;;;;20.75;4.60;;;11.80;99.90;;;;;;4985082;28;20038;-78
2024/03/01 01:00:23;;;;;;;14.60;4.90;;;11.80;99.90;;;;;;4982323;28;20039;-78
2024/03/01 01:02:49;;;;;;;13.75;4.22;;;11.80;99.90;;;;;;4983697;28;20030;-78
2024/03/01 01:05:15;;;;;;;10.70;4.28;;;11.80;99.90;;;;;;4982331;28;20034;-78
2024/03/01 01:07:41;;;;;;;15.23;4.53;;;11.80;99.90;;;;;;4981043;28;20513;-78
2024/03/01 01:10:08;;;;;;;11.10;4.38;;;11.80;99.90;;;;;;4985002;28;20488;-78
2024/03/01 01:12:34;;;;;;;14.48;4.88;;;11.70;99.90;;;;;;4984256;28;20029;-78
2024/03/01 01:15:00;;;;;;;17.25;5.28;;;11.70;99.90;;;;;;4983175;28;20014;-78
2024/03/01 01:17:27;;;;;;;14.90;4.22;;;11.80;99.90;;;;;;4983254;28;20023;-78
2024/03/01 01:19:55;;;;;;;15.73;4.63;;;11.70;99.90;;;;;;4985324;28;20038;-78
2024/03/01 01:22:21;;;;;;;9.85;4.47;;;11.70;99.90;;;;;;4980257;28;20031;-78
2024/03/01 01:24:47;;;;;;;12.55;4.00;;;11.70;99.90;;;;;;4982764;28;20504;-78
2024/03/01 01:27:12;;;;;;;13.27;5.55;;;11.80;99.90;;;;;;4981291;28;20054;-78
2024/03/01 01:29:38;;;;;;;19.63;5.25;;;11.90;99.90;;;;;;4982363;28;20022;-78
2024/03/01 01:32:04;;;;;;;15.45;4.63;;;11.90;99.90;;;;;;4991286;28;20436;-78
2024/03/01 01:34:30;;;;;;;15.00;4.55;;;11.90;99.90;;;;;;4981108;28;20328;-78
2024/03/01 01:36:56;;;;;;;13.15;5.03;;;11.90;99.90;;;;;;4982868;28;20411;-78
2024/03/01 01:39:22;;;;;;;15.43;4.90;;;12.00;99.90;;;;;;4980858;28;20445;-78
2024/03/01 01:41:47;;;;;;;20.52;5.10;;;12.00;99.90;;;;;;4982679;28;20034;-78
2024/03/01 01:44:13;;;;;;;14.00;4.65;;;12.00;99.90;;;;;;4982059;28;20018;-78
2024/03/01 01:46:39;;;;;;;15.43;5.35;;;12.00;99.90;;;;;;4984640;28;20378;-78
2024/03/01 01:49:05;;;;;;;17.42;5.50;;;12.00;99.90;;;;;;4986684;28;20030;-78
2024/03/01 01:51:33;;;;;;;18.25;5.07;;;12.00;99.90;;;;;;4980519;28;20094;-78
2024/03/01 01:53:59;;;;;;;18.45;4.82;;;12.00;99.90;;;;;;4982413;28;20105;-78
2024/03/01 01:56:26;;;;;;;12.63;4.50;;;12.00;99.90;;;;;;4982093;28;20026;-78
2024/03/01 01:58:53;;;;;;;11.55;4.55;;;11.90;99.90;;;;;;4980390;28;20498;-78
2024/03/01 02:01:19;;;;;;;13.43;4.97;;;11.90;99.90;;;;;;4981173;28;20500;-78
2024/03/01 02:03:45;;;;;;;16.65;4.90;;;11.90;99.90;;;;;;4983093;28;20110;-78
2024/03/01 02:06:11;;;;;;;15.60;5.55;;;12.00;99.90;;;;;;4981104;28;20034;-78
2024/03/01 02:08:40;;;;;;;13.40;5.13;;;11.90;99.90;;;;;;4980892;28;20034;-79
2024/03/01 02:11:06;;;;;;;16.80;4.57;;;11.80;99.90;;;;;;4982693;28;20030;-79
2024/03/01 02:13:32;;;;;;;11.68;4.43;;;11.80;99.90;;;;;;4979821;28;20031;-78
2024/03/01 02:15:59;;;;;;;13.27;5.35;;;11.80;99.90;;;;;;4982000;28;20019;-78
2024/03/01 02:18:25;;;;;;;11.52;5.00;;;11.80;99.90;;;;;;4983342;28;20037;-79
2024/03/01 02:21:00;;;;;;;15.57;4.10;;;11.80;99.90;;;;;;4982115;28;20019;-79
2024/03/01 02:23:27;;;;;;;13.77;4.55;;;11.80;99.90;;;;;;4980330;28;20113;-79
2024/03/01 02:25:53;;;;;;;9.07;4.57;;;11.80;99.90;;;;;;4983027;28;20405;-79
2024/03/01 02:28:19;;;;;;;15.65;4.80;;;11.80;99.90;;;;;;4981586;28;20022;-79
2024/03/01 02:30:44;;;;;;;14.85;4.60;;;11.80;99.90;;;;;;4979303;28;20119;-79
2024/03/01 02:33:11;;;;;;;11.93;4.60;;;11.80;99.90;;;;;;4982460;28;20113;-80
2024/03/01 02:35:40;;;;;;;13.18;5.63;;;11.70;99.90;;;;;;4982103;28;20025;-79
2024/03/01 02:38:05;;;;;;;13.00;4.53;;;11.70;99.90;;;;;;4980469;28;20038;-80
2024/03/01 02:40:31;;;;;;;13.13;4.72;;;11.80;99.90;;;;;;4981699;28;20023;-80
2024/03/01 02:42:57;;;;;;;17.25;5.10;;;11.80;99.90;;;;;;4979213;28;20549;-80
2024/03/01 02:45:23;;;;;;;9.75;4.82;;;11.80;99.90;;;;;;4983437;28;20480;-80
2024/03/01 02:47:49;;;;;;;17.63;4.90;;;11.80;99.90;;;;;;4982974;28;20089;-80
2024/03/01 02:50:15;;;;;;;16.92;4.97;;;11.70;99.90;;;;;;4981970;28;20033;-80
2024/03/01 02:52:40;;;;;;;17.58;5.32;;;11.70;99.90;;;;;;4982672;28;20101;-79
2024/03/01 02:55:06;;;;;;;13.07;5.03;;;11.70;99.90;;;;;;4979470;28;20022;-80
2024/03/01 02:57:32;;;;;;;13.68;4.50;;;11.70;99.90;;;;;;4982639;28;20544;-79
2024/03/01 02:59:58;;;;;;;8.00;4.72;;;11.70;99.90;;;;;;4982876;28;20022;-80
2024/03/01 03:02:24;;;;;;;15.50;4.93;;;11.70;99.90;;;;;;4981506;28;20489;-79
2024/03/01 03:04:50;;;;;;;15.27;5.55;;;11.70;99.90;;;;;;4981625;28;20022;-79
2024/03/01 03:07:21;;;;;;;13.02;4.95;;;11.70;99.90;;;;;;4978579;28;20500;-80
2024/03/01 03:09:47;;;;;;;17.27;5.63;;;11.70;99.90;;;;;;4985664;28;20089;-79
2024/03/01 03:12:13;;;;;;;14.27;5.30;;;11.70;99.90;;;;;;4980037;28;20023;-79
2024/03/01 03:14:39;;;;;;;12.65;6.35;;;11.60;99.90;;;;;;4982990;28;20488;-79
2024/03/01 03:17:05;;;;;;;20.67;5.97;;;11.50;99.90;;;;;;4980322;28;20370;-79
2024/03/01 03:19:31;;;;;;;20.70;5.68;;;11.50;99.90;;;;;;4999447;28;20026;-79
2024/03/01 03:21:57;;;;;;;15.60;6.75;;;11.50;99.90;;;;;;4985731;28;20430;-79
2024/03/01 03:24:23;;;;;;;21.25;7.25;;;11.50;99.90;;;;;;4983290;28;20030;-79
2024/03/01 03:26:49;;;;;;;19.67;7.82;;;11.50;99.90;;;;;;4985324;28;20496;-79
2024/03/01 03:29:14;;;;;;;14.30;6.63;;;11.50;99.90;;;;;;4985634;28;20037;-79
2024/03/01 03:31:43;;;;;;;10.10;6.00;;;11.50;99.90;;;;;;4984013;28;20090;-79
2024/03/01 03:34:09;;;;;;;14.60;6.13;;;11.50;99.90;;;;;;4983182;28;20078;-79
2024/03/01 03:36:35;;;;;;;16.85;5.05;;;11.50;99.90;;;;;;4984312;28;20023;-79
2024/03/01 03:39:01;;;;;;;17.33;5.72;;;11.50;99.90;;;;;;4987065;28;20402;-79
2024/03/01 03:41:27;;;;;;;14.77;5.28;;;11.50;99.90;;;;;;4983075;28;20031;-79
2024/03/01 03:43:52;;;;;;;7.75;4.70;;;11.50;99.90;;;;;;4986221;28;20019;-79
2024/03/01 03:46:18;;;;;;;12.23;4.28;;;11.50;99.90;;;;;;4983853;28;20034;-79
2024/03/01 03:48:44;;;;;;;16.95;5.22;;;11.50;99.90;;;;;;4985343;28;20027;-79
2024/03/01 03:51:10;;;;;;;11.05;4.85;;;11.50;99.90;;;;;;4984041;28;20469;-79
2024/03/01 03:53:35;;;;;;;10.70;4.80;;;11.50;99.90;;;;;;4983634;28;20456;-79
2024/03/01 03:56:01;;;;;;;17.67;4.90;;;11.50;99.90;;;;;;4982729;28;20033;-79
2024/03/01 03:58:27;;;;;;;18.27;5.63;;;11.50;99.90;;;;;;4984964;28;20030;-79
2024/03/01 04:00:53;;;;;;;18.08;4.65;;;11.40;99.90;;;;;;4998154;28;20046;-79
2024/03/01 04:03:18;;;;;;;14.18;4.72;;;11.40;99.90;;;;;;4984450;28;20019;-79
2024/03/01 04:05:44;;;;;;;14.75;4.78;;;11.40;99.90;;;;;;4983641;28;20030;-79
2024/03/01 04:08:09;;;;;;;15.52;4.50;;;11.40;99.90;;;;;;4990152;28;20537;-79
2024/03/01 04:10:35;;;;;;;13.10;4.43;;;11.40;99.90;;;;;;4984841;28;20162;-79
2024/03/01 04:13:01;;;;;;;12.32;4.20;;;11.40;99.90;;;;;;4984772;28;20022;-79
2024/03/01 04:15:27;;;;;;;11.60;4.00;;;11.40;99.90;;;;;;4981805;28;20257;-79
2024/03/01 04:17:53;;;;;;;10.60;4.55;;;11.30;99.90;;;;;;4989728;28;20059;-79
2024/03/01 04:20:18;;;;;;;12.05;5.90;;;11.40;99.90;;;;;;4983402;28;20030;-79
2024/03/01 04:22:44;;;;;;;11.68;5.68;;;11.30;99.90;;;;;;4988520;28;20026;-79
2024/03/01 04:25:10;;;;;;;15.43;6.88;;;11.30;99.90;;;;;;4984198;28;20026;-80
2024/03/01 04:27:38;;;;;;;15.43;7.93;;;11.30;99.90;;;;;;4980724;28;20025;-79
2024/03/01 04:30:09;;;;;;;17.83;9.93;;;11.40;99.90;;;;;;4981351;28;20034;-79
2024/03/01 04:32:35;;;;;;;18.33;9.23;;;11.40;99.90;;;;;;4981305;28;20030;-79
2024/03/01 04:35:02;;;;;;;23.77;13.35;;;11.40;99.90;;;;;;4982621;28;20026;-79
2024/03/01 04:37:30;;;;;;;26.15;12.50;;;11.40;99.90;;;;;;4981042;28;20378;-79
2024/03/01 04:39:59;;;;;;;20.42;13.32;;;11.40;99.90;;;;;;4983206;28;20032;-79
2024/03/01 04:42:26;;;;;;;29.30;14.73;;;11.30;99.90;;;;;;4981690;28;20026;-79
2024/03/01 04:44:52;;;;;;;24.30;13.07;;;11.30;99.90;;;;;;4981061;28;20050;-79
2024/03/01 04:47:17;;;;;;;23.70;13.63;;;11.30;99.90;;;;;;4984893;28;20084;-79
2024/03/01 04:49:46;;;;;;;25.75;13.75;;;11.30;99.90;;;;;;4984546;28;20031;-79
2024/03/01 04:52:11;;;;;;;23.08;14.15;;;11.30;99.90;;;;;;4980962;28;20396;-79
2024/03/01 04:54:37;;;;;;;25.20;13.38;;;11.30;99.90;;;;;;4981857;28;20117;-79
2024/03/01 04:57:06;;;;;;;21.17;13.88;;;11.30;99.90;;;;;;4983707;28;20476;-79
2024/03/01 04:59:38;;;;;;;21.77;12.68;;;11.30;99.90;;;;;;4982111;28;20037;-79
2024/03/01 05:02:07;;;;;;;22.63;13.65;;;11.30;99.90;;;;;;4982111;28;20026;-79
2024/03/01 05:04:33;;;;;;;28.00;14.75;;;11.30;99.90;;;;;;4983524;28;20125;-79
2024/03/01 05:06:59;;;;;;;23.23;14.25;;;11.30;99.90;;;;;;4981774;28;20033;-79
2024/03/01 05:09:24;;;;;;;21.80;13.30;;;11.30;99.90;;;;;;4984330;28;20108;-79
2024/03/01 05:11:50;;;;;;;26.33;12.52;;;11.30;99.90;;;;;;4981752;28;20037;-79
2024/03/01 05:14:16;;;;;;;20.50;11.90;;;11.20;99.90;;;;;;4981867;28;20420;-79
2024/03/01 05:16:41;;;;;;;15.68;10.73;;;11.20;99.90;;;;;;4984190;28;20026;-79
2024/03/01 05:19:07;;;;;;;18.42;10.95;;;11.20;99.90;;;;;;4987797;28;20033;-79
2024/03/01 05:21:33;;;;;;;18.27;10.18;;;11.20;99.90;;;;;;4983630;28;20069;-79
2024/03/01 05:23:58;;;;;;;19.02;10.07;;;11.20;99.90;;;;;;4981054;28;20418;-79
2024/03/01 05:26:25;;;;;;;19.35;10.60;;;11.20;99.90;;;;;;4983238;28;20046;-79
2024/03/01 05:28:52;;;;;;;15.15;10.07;;;11.20;99.90;;;;;;4982284;28;20037;-79
2024/03/01 05:31:20;;;;;;;12.63;8.80;;;11.20;99.90;;;;;;4981476;28;20031;-79
2024/03/01 05:33:49;;;;;;;17.38;10.27;;;11.20;99.90;;;;;;4999655;28;20105;-79
2024/03/01 05:36:15;;;;;;;15.90;9.80;;;11.20;99.90;;;;;;4981487;28;20030;-79
2024/03/01 05:38:41;;;;;;;14.38;10.20;;;11.20;99.90;;;;;;4981182;28;20026;-79
2024/03/01 05:41:07;;;;;;;22.48;10.77;;;11.20;99.90;;;;;;4982875;28;20057;-79
2024/03/01 05:43:33;;;;;;;14.90;9.88;;;11.20;99.90;;;;;;4979210;28;20402;-79
2024/03/01 05:46:21;;;;;;;17.60;10.02;;;11.30;99.90;;;;;;4983151;28;20038;-79
2024/03/01 05:48:47;;;;;;;19.23;10.38;;;11.20;99.90;;;;;;4983492;28;20392;-79
2024/03/01 05:51:13;;;;;;;16.50;10.23;;;11.20;99.90;;;;;;4982243;28;20022;-79
2024/03/01 05:53:41;;;;;;;19.75;10.13;;;11.20;99.90;;;;;;4981842;28;20034;-79
2024/03/01 05:56:17;;;;;;;18.38;8.98;;;11.10;99.90;;;;;;4985026;28;20573;-79
2024/03/01 05:58:42;;;;;;;15.65;9.60;;;11.10;99.90;;;;;;4972621;28;20039;-79
2024/03/01 06:01:08;;;;;;;21.02;10.88;;;11.10;99.90;;;;;;4980279;28;20429;-79
2024/03/01 06:03:34;;;;;;;14.80;10.25;;;11.20;99.90;;;;;;4986318;28;20034;-79
2024/03/01 06:06:00;;;;;;;20.98;13.35;;;11.20;99.90;;;;;;4989054;28;20049;-79
2024/03/01 06:08:26;;;;;;;26.20;14.07;;;11.20;99.90;;;;;;4976300;28;20041;-79
2024/03/01 06:10:52;;;;;;;21.88;13.07;;;11.20;99.90;;;;;;4978037;28;20023;-79
2024/03/01 06:13:18;;;;;;;21.02;12.95;;;11.20;99.90;;;;;;4988820;28;20041;-79
2024/03/01 06:15:44;;;;;;;21.80;9.95;;;11.20;99.90;;;;;;4981068;28;20469;-79
2024/03/01 06:18:10;;;;;;;14.25;8.73;;;11.20;99.90;;;;;;4986295;28;20069;-79
2024/03/01 06:20:36;;;;;;;13.23;7.72;;;11.20;99.90;;;;;;4983313;28;20499;-79
2024/03/01 06:23:01;;;;;;;12.93;8.05;;;11.20;99.90;;;;;;4986756;28;20029;-79
2024/03/01 06:25:27;;;;;;;18.40;7.65;;;11.20;99.90;;;;;;4975028;28;20057;-79
2024/03/01 06:27:53;;;;;;;11.65;6.65;;;11.20;99.90;;;;;;4985581;28;20463;-79
2024/03/01 06:30:19;;;;;;;14.10;7.90;;;11.20;99.90;;;;;;4988076;28;20116;-79
2024/03/01 06:32:45;;;;;;;9.57;7.60;;;11.20;99.90;;;;;;4987203;28;20030;-79
2024/03/01 06:35:10;;;;;;;14.13;7.85;;;11.20;99.90;;;;;;4984677;28;20022;-79
2024/03/01 06:37:36;;;;;;;17.05;8.02;;;11.20;99.90;;;;;;4990939;28;20026;-79
2024/03/01 06:40:05;;;;;;;14.63;7.95;;;11.20;99.90;;;;;;4975651;28;20027;-79
2024/03/01 06:42:32;;;;;;;11.10;7.68;;;11.20;99.90;;;;;;4980112;28;20027;-79
2024/03/01 06:44:58;;;;;;;11.40;6.15;;;11.20;99.90;;;;;;4979172;28;20414;-79
2024/03/01 06:47:24;;;;;;;8.60;5.88;;;11.20;99.90;;;;;;4983072;28;20037;-79
2024/03/01 06:49:49;;;;;;;9.63;6.00;;;11.20;99.90;;;;;;4984340;28;20030;-79
2024/03/01 06:52:15;;;;;;;11.82;5.97;;;11.20;99.90;;;;;;4981020;28;20029;-79
2024/03/01 06:54:44;;;;;;;13.80;6.70;;;11.20;99.90;;;;;;4984132;28;20424;-79
2024/03/01 06:57:10;;;;;;;12.30;6.18;;;11.10;99.90;;;;;;4983156;28;20046;-79
2024/03/01 06:59:39;;;;;;;9.52;5.78;;;11.10;99.90;;;;;;4987291;28;20484;-79
2024/03/01 07:02:06;;;;;;;10.32;5.80;;;11.20;99.90;;;;;;4993025;28;20030;-79
2024/03/01 07:04:31;;;;;;;7.10;5.28;;;11.20;99.90;;;;;;4986803;28;20093;-79
2024/03/01 07:06:58;;;;;;;11.82;5.35;;;11.20;99.90;;;;;;4983344;28;20027;-79
2024/03/01 07:09:23;;;;;;;7.20;4.93;;;11.10;99.90;;;;;;4986988;28;20030;-79
2024/03/01 07:11:49;;;;;;;11.57;5.47;;;11.20;99.90;;;;;;4983279;28;20026;-79
2024/03/01 07:14:15;;;;;;;9.95;5.43;;;11.20;99.90;;;;;;4984842;28;20370;-79
2024/03/01 07:16:41;;;;;;;10.30;4.97;;;11.20;99.90;;;;;;4983422;28;20084;-79
2024/03/01 07:19:07;;;;;;;5.88;5.03;;;11.20;99.90;;;;;;4981995;28;20027;-79
2024/03/01 07:21:32;;;;;;;7.95;4.68;;;11.20;99.90;;;;;;4987092;28;20035;-79
2024/03/01 07:23:58;;;;;;;6.45;5.07;;;11.20;99.90;;;;;;4982696;28;20027;-79
2024/03/01 07:26:27;;;;;;;9.65;6.90;;;11.20;99.90;;;;;;4984746;28;20058;-79
2024/03/01 07:28:56;;;;;;;12.45;8.38;;;11.20;99.90;;;;;;4985514;28;20026;-79
2024/03/01 07:31:21;;;;;;;8.77;6.95;;;11.10;99.90;;;;;;4987594;28;20015;-79
2024/03/01 07:33:47;;;;;;;13.05;8.68;;;11.10;99.90;;;;;;4982456;28;20066;-79
2024/03/01 07:36:13;;;;;;;19.35;10.63;;;11.10;99.90;;;;;;4985116;28;20022;-79
2024/03/01 07:38:39;;;;;;;15.68;10.60;;;11.10;99.90;;;;;;4985442;28;20030;-79
2024/03/01 07:41:05;;;;;;;11.50;6.07;;;11.10;99.90;;;;;;4984066;28;20030;-79
2024/03/01 07:43:31;;;;;;;11.88;6.97;;;11.10;99.90;;;;;;4991588;28;20030;-78
2024/03/01 07:45:56;;;;;;;14.50;5.78;;;11.20;99.90;;;;;;4976885;28;20027;-79
2024/03/01 07:48:22;;;;;;;7.00;5.25;;;11.20;99.90;;;;;;4990277;28;20026;-79
2024/03/01 07:50:48;;;;;;;9.75;6.15;;;11.20;99.90;;;;;;4990217;28;20027;-79
2024/03/01 07:53:13;;;;;;;9.85;5.50;;;11.20;99.90;;;;;;4982637;28;20046;-78
2024/03/01 07:55:39;;;;;;;13.50;7.07;;;11.20;99.90;;;;;;4988966;28;20026;-78
2024/03/01 07:58:05;;;;;;;19.40;13.38;;;11.20;99.90;;;;;;4995528;28;20412;-79
2024/03/01 08:00:31;;;;;;;17.77;10.30;;;11.20;99.90;;;;;;4990923;28;20057;-79
2024/03/01 08:03:10;;;;;;;13.48;8.23;;;11.20;99.90;;;;;;4995852;28;20135;-79
2024/03/01 08:05:38;;;;;;;12.45;6.60;;;11.20;99.90;;;;;;4994720;28;20026;-79
2024/03/01 08:08:05;;;;;;;9.27;5.15;;;11.20;99.90;;;;;;4991013;28;20015;-79
2024/03/01 08:10:34;;;;;;;8.10;5.32;;;11.20;99.90;;;;;;4974847;28;20465;-78
2024/03/01 08:13:03;;;;;;;11.20;6.57;;;11.20;99.90;;;;;;4976216;28;20062;-80
2024/03/01 08:15:35;;;;;;;10.73;6.05;;;11.20;99.90;;;;;;4987252;28;20468;-80
2024/03/01 08:18:12;;;;;;;5.80;4.75;;;11.20;99.90;;;;;;4989348;28;20049;-79
2024/03/01 08:20:57;;;;;;;7.47;5.03;;;11.20;99.90;;;;;;4994357;28;20038;-79
2024/03/01 08:23:28;;;;;;;9.45;5.03;;;11.20;99.90;;;;;;4992667;28;20070;-80
2024/03/01 08:25:54;;;;;;;8.25;4.68;;;11.20;99.90;;;;;;4982715;28;20042;-80
2024/03/01 08:28:31;;;;;;;9.85;4.70;;;11.30;99.90;;;;;;4982846;28;20476;-80
2024/03/01 08:31:03;;;;;;;13.70;5.50;;;11.30;99.90;;;;;;4987940;28;20034;-80
2024/03/01 08:33:31;;;;;;;;;;;11.30;99.90;;;;;;4984357;28;20026;-81
2024/03/01 08:35:56;;;;;;;9.05;5.50;;;11.30;99.90;;;;;;4981303;28;19961;-80
2024/03/01 08:38:41;;;;;;;7.47;5.43;;;11.30;99.90;;;;;;4979814;28;20023;-81
2024/03/01 08:41:10;;;;;;;9.88;4.82;;;11.30;99.90;;;;;;4982386;28;20227;-81
2024/03/01 08:43:36;;;;;;;9.93;4.75;;;11.30;99.90;;;;;;4980662;28;20023;-80
2024/03/01 08:46:04;;;;;;;7.53;4.93;;;11.30;99.90;;;;;;4986086;28;20027;-80
2024/03/01 08:48:34;;;;;;;10.05;5.90;;;11.30;99.90;;;;;;4979265;28;20098;-80
2024/03/01 08:51:03;;;;;;;9.15;5.10;;;11.30;99.90;;;;;;4981899;28;20370;-80
2024/03/01 08:53:56;;;;;;;8.57;4.82;;;11.30;99.90;;;;;;4983887;28;20047;-81
2024/03/01 08:56:23;;;;;;;6.47;4.35;;;11.30;99.90;;;;;;4985942;28;20560;-80
2024/03/01 08:58:49;;;;;;;5.97;4.07;;;11.40;99.90;;;;;;4984119;28;20037;-80
2024/03/01 09:01:45;;;;;;;6.43;4.72;;;11.40;99.90;;;;;;4982373;28;20477;-81
2024/03/01 09:04:17;;;;;;;7.45;6.50;;;11.40;99.90;;;;;;4980092;28;20484;-81
2024/03/01 09:06:43;;;;;;;14.70;7.53;;;11.40;99.90;;;;;;4981095;28;20125;-81
2024/03/01 09:09:21;;;;;;;10.02;7.07;;;11.40;99.90;;;;;;4982525;28;20209;-80
2024/03/01 09:11:46;;;;;;;14.02;8.98;;;11.40;99.90;;;;;;4983964;28;20026;-80
2024/03/01 09:14:24;;;;;;;24.63;18.98;;;11.40;99.90;;;;;;4984609;28;20033;-80
2024/03/01 09:16:51;;;;;;;14.15;11.32;;;11.40;99.90;;;;;;4976265;28;20477;-80
2024/03/01 09:19:22;;;;;;;10.15;7.00;;;11.50;99.90;;;;;;4981559;28;20026;-81
2024/03/01 09:21:48;;;;;;;10.50;5.82;;;11.50;99.90;;;;;;4982446;28;20492;-80
2024/03/01 09:24:16;;;;;;;9.10;5.10;;;11.50;99.90;;;;;;4990779;28;20078;-80
2024/03/01 09:26:42;;;;;;;7.13;5.18;;;11.50;99.90;;;;;;4980517;28;20050;-80
2024/03/01 09:29:15;;;;;;;9.68;5.47;;;11.50;99.90;;;;;;4983270;28;20030;-80
2024/03/01 09:31:41;;;;;;;9.70;5.70;;;11.50;99.90;;;;;;4981350;28;20049;-80
2024/03/01 09:34:10;;;;;;;9.63;4.82;;;11.50;99.90;;;;;;4981356;28;20520;-80
2024/03/01 09:36:36;;;;;;;9.32;4.70;;;11.50;99.90;;;;;;4980780;28;20109;-81
2024/03/01 09:39:05;;;;;;;6.82;4.88;;;11.50;99.90;;;;;;4981324;28;20122;-80
2024/03/01 09:42:00;;;;;;;7.43;4.93;;;11.60;99.90;;;;;;4981686;28;20034;-81
2024/03/01 09:44:50;;;;;;;9.15;4.43;;;11.60;99.90;;;;;;4988948;28;20050;-81
2024/03/01 09:47:37;;;;;;;7.82;4.78;;;11.60;99.90;;;;;;4979179;28;20496;-80
2024/03/01 09:50:24;;;;;;;6.32;5.00;;;11.60;99.90;;;;;;4981729;28;20117;-80
2024/03/01 09:52:52;;;;;;;13.02;6.65;;;11.60;99.90;;;;;;4979756;28;20105;-81
2024/03/01 09:55:38;;;;;;;10.75;9.65;;;11.60;99.90;;;;;;4983755;28;20164;-81
2024/03/01 09:58:51;;;;;;;13.35;7.40;;;11.60;99.90;;;;;;4954157;28;20038;-81
2024/03/01 10:01:23;;;;;;;;;;;11.60;99.90;;;;;;4959140;28;20047;-81
2024/03/01 10:03:55;;;;;;;;;;;11.60;99.90;;;;;;4981070;28;20403;-80
2024/03/01 10:06:37;;;;;;;6.18;4.65;;;11.60;99.90;;;;;;4981778;28;19906;-80
2024/03/01 10:09:11;;;;;;;;;;;11.60;99.90;;;;;;4984978;28;20070;-80
2024/03/01 10:11:55;;;;;;;6.60;4.65;;;11.60;99.90;;;;;;4980771;28;20380;-80
2024/03/01 10:14:31;;;;;;;11.73;4.30;;;11.60;99.90;;;;;;4982133;28;20026;-80
2024/03/01 10:17:14;;;;;;;8.85;5.50;;;11.60;99.90;;;;;;4984838;28;20023;-80
2024/03/01 10:20:09;;;;;;;6.13;4.97;;;11.60;99.90;;;;;;4983312;28;20033;-80
2024/03/01 10:22:38;;;;;;;8.55;5.75;;;11.70;99.90;;;;;;4978998;28;20034;-80
2024/03/01 10:25:15;;;;;;;8.20;7.28;;;11.70;99.90;;;;;;4979803;28;20457;-81
2024/03/01 10:28:18;;;;;;;9.10;7.45;;;11.70;99.90;;;;;;4982119;28;20078;-80
2024/03/01 10:30:58;;;;;;;;;;;11.60;99.90;;;;;;4978364;28;20074;-80
2024/03/01 10:33:43;;;;;;;11.93;7.07;;;11.70;99.90;;;;;;4985369;28;19906;-80
2024/03/01 10:36:16;;;;;;;10.52;6.57;;;11.70;99.90;;;;;;4988428;28;20030;-80
2024/03/01 10:39:09;;;;;;;10.88;6.03;;;11.70;99.90;;;;;;4984004;28;20476;-80
2024/03/01 10:41:58;;;;;;;10.55;7.25;;;11.70;99.90;;;;;;4984550;28;20165;-80
2024/03/01 10:44:39;;;;;;;9.30;7.15;;;11.70;99.90;;;;;;4993710;28;20082;-80
2024/03/01 10:47:20;;;;;;;11.10;7.78;;;11.80;99.90;;;;;;5012953;28;20365;-80
2024/03/01 10:50:10;;;;;;;11.15;7.57;;;11.80;99.90;;;;;;4994525;28;20499;-81
2024/03/01 10:52:59;;;;;;;13.85;10.77;;;11.80;99.90;;;;;;4992132;28;20022;-81
2024/03/01 10:55:31;;;;;;;18.98;13.27;;;11.80;99.90;;;;;;4983103;28;20033;-81
2024/03/01 10:58:03;;;;;;;;;;;11.70;99.90;;;;;;4990069;28;20030;-81
2024/03/01 11:00:29;;;;;;;18.70;14.83;;;11.80;99.90;;;;;;4983639;28;20356;-82
2024/03/01 11:03:12;;;;;;;24.55;15.98;;;11.70;99.90;;;;;;4986133;28;20108;-82
2024/03/01 11:05:49;;;;;;;24.00;16.60;;;11.70;99.90;;;;;;4985074;28;20026;-82
2024/03/01 11:08:44;;;;;;;30.40;18.15;;;11.80;99.90;;;;;;4999945;28;20039;-82
2024/03/01 11:11:45;;;;;;;26.20;18.85;;;11.80;99.90;;;;;;4984701;28;20392;-83
2024/03/01 11:14:13;;;;;;;21.60;17.88;;;11.80;99.90;;;;;;4998558;28;20030;-82
2024/03/01 11:16:42;;;;;;;33.80;21.48;;;11.80;99.90;;;;;;4986896;28;20034;-82
2024/03/01 11:19:13;;;;;;;33.30;20.73;;;11.80;99.90;;;;;;4982879;28;20072;-82
2024/03/01 11:21:43;;;;;;;27.92;20.35;;;11.80;99.90;;;;;;4985706;28;20023;-81
2024/03/01 11:24:16;;;;;;;27.67;18.13;;;11.80;99.90;;;;;;4983067;28;20027;-81
2024/03/01 11:26:43;;;;;;;25.55;16.30;;;11.90;99.90;;;;;;4984709;28;20152;-81
2024/03/01 11:29:22;;;;;;;31.38;17.77;;;11.90;99.90;;;;;;4986617;28;20022;-81
2024/03/01 11:31:55;;;;;;;34.28;20.35;;;11.90;99.90;;;;;;4985530;28;20265;-81
2024/03/01 11:34:42;;;;;;;25.90;18.23;;;11.80;99.90;;;;;;4982191;28;20027;-81
2024/03/01 11:37:27;;;;;;;31.27;18.23;;;11.90;99.90;;;;;;4987012;28;20365;-81
2024/03/01 11:40:07;;;;;;;28.08;18.75;;;11.90;99.90;;;;;;4982640;28;20030;-81
2024/03/01 11:42:34;;;;;;;32.17;19.35;;;11.90;99.90;;;;;;4988175;28;20035;-81
2024/03/01 11:45:17;;;;;;;30.33;19.70;;;11.90;99.90;;;;;;4988450;28;20031;-81
2024/03/01 11:48:07;;;;;;;32.40;22.08;;;11.90;99.90;;;;;;4989302;28;20393;-81
2024/03/01 11:50:39;;;;;;;28.48;20.98;;;11.90;99.90;;;;;;4996609;28;20034;-81
2024/03/01 11:53:41;;;;;;;35.92;20.45;;;12.00;99.90;;;;;;4981709;28;20022;-81
2024/03/01 11:56:27;;;;;;;36.08;21.27;;;12.00;99.90;;;;;;4981694;28;20019;-80
2024/03/01 11:59:09;;;;;;;28.02;19.30;;;12.00;99.90;;;;;;4997397;28;20482;-80
2024/03/01 12:01:35;;;;;;;28.17;20.50;;;12.00;99.90;;;;;;4978037;28;20094;-80
2024/03/01 12:04:23;;;;;;;33.97;19.80;;;12.00;99.90;;;;;;4980006;28;20030;-80
2024/03/01 12:07:11;;;;;;;34.63;22.40;;;12.00;99.90;;;;;;4984818;28;20331;-80
2024/03/01 12:09:49;;;;;;;32.58;22.92;;;12.10;99.90;;;;;;4979624;28;20034;-80
2024/03/01 12:12:39;;;;;;;35.70;21.70;;;12.10;99.90;;;;;;4978475;28;20441;-80
2024/03/01 12:15:31;;;;;;;33.58;22.80;;;12.10;99.90;;;;;;4979278;28;20066;-81
2024/03/01 12:18:08;;;;;;;33.28;21.70;;;12.10;99.90;;;;;;4987215;28;20398;-80
2024/03/01 12:20:47;;;;;;;26.00;18.60;;;12.10;99.90;;;;;;4984568;28;20030;-80
2024/03/01 12:23:31;;;;;;;29.98;20.92;;;12.00;99.90;;;;;;4983192;28;20030;-79
2024/03/01 12:26:01;;;;;;;31.10;19.42;;;12.10;99.90;;;;;;4978143;28;20072;-79
2024/03/01 12:28:33;;;;;;;28.90;21.25;;;12.00;99.90;;;;;;4976848;28;20493;-78
2024/03/01 12:31:18;;;;;;;27.75;20.30;;;12.10;99.90;;;;;;4983261;28;20113;-79
2024/03/01 12:33:52;;;;;;;33.13;22.73;;;12.10;99.90;;;;;;4977895;28;20228;-79
2024/03/01 12:36:46;;;;;;;32.75;20.45;;;12.00;99.90;;;;;;4976606;28;20524;-78
2024/03/01 12:39:18;;;;;;;34.28;22.90;;;12.00;99.90;;;;;;4979357;28;20117;-79
2024/03/01 12:42:23;;;;;;;32.92;21.83;;;12.00;99.90;;;;;;4980741;28;20508;-78
2024/03/01 12:45:08;;;;;;;31.20;20.65;;;12.00;99.90;;;;;;4976650;28;20066;-78
2024/03/01 12:47:59;;;;;;;40.40;25.80;;;12.00;99.90;;;;;;4981933;28;20035;-78
2024/03/01 12:50:46;;;;;;;39.75;26.27;;;12.10;99.90;;;;;;4979417;28;20252;-78
2024/03/01 12:53:45;;;;;;;40.10;26.63;;;12.10;99.90;;;;;;4994962;28;20475;-79
2024/03/01 12:56:40;;;;;;;38.85;28.48;;;12.10;99.90;;;;;;4979864;28;20477;-79